»·PEaware :: N6262K KBFL-KSNA

N6262K :: KBFL-KSNA

FLIGHT INFORMATION

Flight Status: Arrived
Operator: Privately registered:
United States
More flights under this callsign
Pilot: Judson K. (15650)
Aircraft: MITSUBISHI MU-2 MARQUISE
(MU2)
More flights by this aircraft type
Origin: KBFL Meadows
United States
Destination: KSNA John Wayne-Orange Co
United States
More flights between these airports :: More routes between these airports
Route: +MEADO3 FIM TANDY4
File this flight plan on PilotEdge
Remarks:
Altitude:
(Current/Filed)
17,000ft
Speed:
(Current/Filed)
240kts
Departed: 11-Jan-18 07:12 PM
Arrived: 11-Jan-18 08:23 PM
Distance/Time
Traveled:
121nm/1:11
Distance/Time
To Go:
Arrived

Flight Plot

Page will automatically refresh every two minutes.

Flight plan parsing failed; only flown route is shown


Map Options




Map Legend


Flown Route
Filed Route
Departure Airport
Arrival Airport
Navaid (VOR, NDB)
Fix

Horizontal Profiles

Position Reports

Time Latitude Longitude Heading Altitude Ground
Speed
11-Jan-18 18:55 35.429380 -119.046090 226 494ft 0kts
11-Jan-18 18:56 35.429380 -119.046090 226 494ft 0kts
11-Jan-18 18:57 35.429380 -119.046090 226 494ft 0kts
11-Jan-18 18:58 35.429380 -119.046090 226 494ft 0kts
11-Jan-18 18:59 35.429379 -119.046090 225 494ft 0kts
11-Jan-18 19:00 35.429379 -119.046090 226 494ft 0kts
11-Jan-18 19:01 35.429341 -119.046355 255 494ft 0kts
11-Jan-18 19:02 35.429341 -119.046355 255 494ft 0kts
11-Jan-18 19:03 35.429341 -119.046355 255 494ft 0kts
11-Jan-18 19:04 35.429341 -119.046355 254 494ft 0kts
11-Jan-18 19:05 35.429341 -119.046355 254 494ft 0kts
11-Jan-18 19:06 35.429341 -119.046355 254 494ft 0kts
11-Jan-18 19:07 35.429341 -119.046355 254 494ft 0kts
11-Jan-18 19:08 35.429341 -119.046355 254 494ft 0kts
11-Jan-18 19:09 35.429341 -119.046355 254 494ft 0kts
11-Jan-18 19:10 35.429341 -119.046355 254 494ft 0kts
11-Jan-18 19:11 35.429341 -119.046356 256 494ft 0kts
11-Jan-18 19:12 35.429015 -119.046529 189 492ft 0kts
11-Jan-18 19:13 35.428997 -119.046533 189 492ft 2kts
11-Jan-18 19:14 35.426728 -119.045379 135 482ft 21kts
11-Jan-18 19:15 35.425593 -119.044778 254 479ft 0kts
11-Jan-18 19:16 35.425593 -119.044778 254 479ft 0kts
11-Jan-18 19:17 35.425690 -119.046363 312 476ft 11kts
11-Jan-18 19:18 35.438911 -119.061947 316 560ft 170kts
11-Jan-18 19:19 35.470567 -119.102556 313 2946ft 167kts
11-Jan-18 19:20 35.504649 -119.147323 303 2999ft 189kts
11-Jan-18 19:21 35.476533 -119.184067 194 4032ft 177kts
11-Jan-18 19:22 35.428858 -119.198951 194 6166ft 181kts
11-Jan-18 19:23 35.380849 -119.215166 207 8140ft 187kts
11-Jan-18 19:26 35.429380 -119.046090 225 494ft 0kts
11-Jan-18 19:27 35.429379 -119.046090 224 494ft 0kts
11-Jan-18 19:28 35.429379 -119.046090 224 494ft 0kts
11-Jan-18 19:29 35.428147 -119.045838 162 490ft 12kts
11-Jan-18 19:30 35.425732 -119.044771 226 479ft 0kts
11-Jan-18 19:31 35.425732 -119.044771 226 479ft 0kts
11-Jan-18 19:32 35.425523 -119.046150 316 476ft 0kts
11-Jan-18 19:33 35.449159 -119.075383 313 1523ft 165kts
11-Jan-18 19:34 35.478196 -119.113352 313 4238ft 156kts
11-Jan-18 19:35 35.508898 -119.153498 313 5985ft 174kts
11-Jan-18 19:36 35.543039 -119.197740 313 7201ft 180kts
11-Jan-18 19:37 35.556201 -119.247415 220 9632ft 192kts
11-Jan-18 19:38 35.501760 -119.243033 192 11841ft 205kts
11-Jan-18 19:39 35.445937 -119.253003 194 14012ft 209kts
11-Jan-18 19:40 35.387053 -119.248059 178 16119ft 222kts
11-Jan-18 19:41 35.321151 -119.233064 172 17011ft 280kts
11-Jan-18 19:42 35.240115 -119.205058 169 17001ft 318kts
11-Jan-18 19:43 35.153662 -119.173258 168 17000ft 330kts
11-Jan-18 19:44 35.065688 -119.140659 168 16999ft 334kts
11-Jan-18 19:45 34.976596 -119.107774 168 17016ft 335kts
11-Jan-18 19:46 34.889300 -119.075660 168 17024ft 337kts
11-Jan-18 19:47 34.799333 -119.042862 168 17023ft 338kts
11-Jan-18 19:48 34.709680 -119.009984 168 17024ft 338kts
11-Jan-18 19:49 34.619716 -118.977098 167 17023ft 338kts
11-Jan-18 19:50 34.529964 -118.944513 168 17026ft 338kts
11-Jan-18 19:51 34.440583 -118.911854 168 17065ft 335kts
11-Jan-18 19:52 34.352233 -118.879684 168 16634ft 332kts
11-Jan-18 19:53 34.263935 -118.847840 167 16138ft 331kts
11-Jan-18 19:54 34.176402 -118.815966 167 15665ft 329kts
11-Jan-18 19:55 34.089770 -118.784725 167 15171ft 328kts
11-Jan-18 19:56 34.003235 -118.753649 166 14035ft 323kts
11-Jan-18 19:57 33.919877 -118.723512 166 13979ft 304kts
11-Jan-18 19:58 33.840458 -118.695076 166 13778ft 295kts
11-Jan-18 19:59 33.762071 -118.667216 165 12900ft 293kts
11-Jan-18 20:00 33.684581 -118.639540 165 12093ft 290kts
11-Jan-18 20:01 33.608070 -118.612137 165 11315ft 286kts
11-Jan-18 20:02 33.576480 -118.538715 82 10476ft 274kts
11-Jan-18 20:03 33.580831 -118.449106 82 9232ft 264kts
11-Jan-18 20:04 33.587433 -118.364123 63 7660ft 248kts
11-Jan-18 20:05 33.626414 -118.300853 51 5987ft 248kts
11-Jan-18 20:06 33.667837 -118.236069 51 4470ft 243kts
11-Jan-18 20:07 33.705967 -118.175590 51 3970ft 202kts
11-Jan-18 20:08 33.740434 -118.120571 51 3987ft 226kts
11-Jan-18 20:09 33.780485 -118.057461 51 3981ft 246kts
11-Jan-18 20:10 33.812237 -117.985320 64 3983ft 252kts
11-Jan-18 20:11 33.840989 -117.912705 64 3974ft 225kts
11-Jan-18 20:12 33.867051 -117.848346 64 3976ft 206kts
11-Jan-18 20:13 33.891351 -117.787944 64 3987ft 197kts
11-Jan-18 20:14 33.914965 -117.729304 64 4006ft 193kts
11-Jan-18 20:15 33.929088 -117.672914 22 4016ft 187kts
11-Jan-18 20:16 33.978304 -117.689520 337 4007ft 189kts
11-Jan-18 20:17 34.027007 -117.710559 11 4026ft 186kts
11-Jan-18 20:18 34.022515 -117.665258 146 4038ft 190kts
11-Jan-18 20:19 33.977741 -117.632061 156 3786ft 188kts
11-Jan-18 20:20 33.942709 -117.667610 237 3491ft 168kts
11-Jan-18 20:21 33.919840 -117.711767 218 3484ft 145kts
11-Jan-18 20:22 33.884588 -117.735979 207 3106ft 154kts
11-Jan-18 20:23 33.845586 -117.761071 207 2665ft 161kts
11-Jan-18 20:24 33.806202 -117.786014 207 2217ft 158kts
11-Jan-18 20:25 33.769820 -117.809150 207 2003ft 146kts
11-Jan-18 20:26 33.738133 -117.828938 207 1266ft 114kts
11-Jan-18 20:27 33.709563 -117.847221 208 727ft 118kts
11-Jan-18 20:28 33.680907 -117.865466 208 71ft 107kts
11-Jan-18 20:29 33.672137 -117.872042 253 60ft 0kts
11-Jan-18 20:30 33.670954 -117.874168 199 60ft 0kts
11-Jan-18 20:31 33.670884 -117.874198 198 60ft 0kts
11-Jan-18 20:32 33.670884 -117.874198 199 60ft 0kts
11-Jan-18 20:33 33.670884 -117.874198 199 60ft 0kts
11-Jan-18 20:34 33.670884 -117.874198 199 60ft 0kts
11-Jan-18 20:35 33.670884 -117.874198 199 60ft 0kts
11-Jan-18 20:36 33.670884 -117.874198 199 60ft 0kts
11-Jan-18 20:37 33.670884 -117.874198 199 60ft 0kts
11-Jan-18 20:38 33.670884 -117.874198 199 60ft 0kts
11-Jan-18 20:39 33.670884 -117.874198 199 60ft 0kts
11-Jan-18 20:40 33.670884 -117.874198 199 60ft 0kts
11-Jan-18 20:41 33.670884 -117.874198 199 60ft 0kts
11-Jan-18 20:42 33.670884 -117.874198 199 60ft 0kts
11-Jan-18 20:43 33.670884 -117.874198 199 60ft 0kts

Navigation Log

Ident Type
Flight plan parsing failed, navigation log unavailable